sensor_id;sensor_type;location;lat;lon;timestamp;temperature;humidity
6054;DHT22;3055;50.886;14.814;2023-03-14T00:00:49;9.80;99.90
6054;DHT22;3055;50.886;14.814;2023-03-14T00:03:16;9.80;99.90
6054;DHT22;3055;50.886;14.814;2023-03-14T00:05:43;9.80;99.90
6054;DHT22;3055;50.886;14.814;2023-03-14T00:08:10;9.80;99.90
6054;DHT22;3055;50.886;14.814;2023-03-14T00:10:38;9.80;99.90
6054;DHT22;3055;50.886;14.814;2023-03-14T00:13:06;9.80;99.90
6054;DHT22;3055;50.886;14.814;2023-03-14T00:15:34;9.80;99.90
6054;DHT22;3055;50.886;14.814;2023-03-14T00:18:01;9.70;99.90
6054;DHT22;3055;50.886;14.814;2023-03-14T00:20:28;9.70;99.90
6054;DHT22;3055;50.886;14.814;2023-03-14T00:22:55;9.80;99.90
6054;DHT22;3055;50.886;14.814;2023-03-14T00:25:22;9.70;99.90
6054;DHT22;3055;50.886;14.814;2023-03-14T00:27:50;9.60;99.90
6054;DHT22;3055;50.886;14.814;2023-03-14T00:30:19;9.60;99.90
6054;DHT22;3055;50.886;14.814;2023-03-14T00:32:46;9.60;99.90
6054;DHT22;3055;50.886;14.814;2023-03-14T00:35:13;9.60;99.90
6054;DHT22;3055;50.886;14.814;2023-03-14T00:37:40;9.50;99.90
6054;DHT22;3055;50.886;14.814;2023-03-14T00:40:08;9.60;99.90
6054;DHT22;3055;50.886;14.814;2023-03-14T00:42:35;9.70;99.90
6054;DHT22;3055;50.886;14.814;2023-03-14T00:45:03;9.70;99.90
6054;DHT22;3055;50.886;14.814;2023-03-14T00:47:31;9.80;99.90
6054;DHT22;3055;50.886;14.814;2023-03-14T00:49:58;9.90;99.90
6054;DHT22;3055;50.886;14.814;2023-03-14T00:52:25;9.90;99.90
6054;DHT22;3055;50.886;14.814;2023-03-14T00:54:52;9.80;99.90
6054;DHT22;3055;50.886;14.814;2023-03-14T00:57:19;9.70;99.90
6054;DHT22;3055;50.886;14.814;2023-03-14T00:59:46;9.80;99.90
6054;DHT22;3055;50.886;14.814;2023-03-14T01:02:13;9.70;99.90
6054;DHT22;3055;50.886;14.814;2023-03-14T01:04:42;9.60;99.90
6054;DHT22;3055;50.886;14.814;2023-03-14T01:07:09;9.60;99.90
6054;DHT22;3055;50.886;14.814;2023-03-14T01:09:36;9.50;99.90
6054;DHT22;3055;50.886;14.814;2023-03-14T01:12:04;9.40;99.90
6054;DHT22;3055;50.886;14.814;2023-03-14T01:14:31;9.40;99.90
6054;DHT22;3055;50.886;14.814;2023-03-14T01:16:58;9.30;99.90
6054;DHT22;3055;50.886;14.814;2023-03-14T01:19:26;9.30;99.90
6054;DHT22;3055;50.886;14.814;2023-03-14T01:21:55;9.40;99.90
6054;DHT22;3055;50.886;14.814;2023-03-14T01:24:22;9.40;99.90
6054;DHT22;3055;50.886;14.814;2023-03-14T01:26:49;9.40;99.90
6054;DHT22;3055;50.886;14.814;2023-03-14T01:29:16;9.40;99.90
6054;DHT22;3055;50.886;14.814;2023-03-14T01:31:43;9.40;99.90
6054;DHT22;3055;50.886;14.814;2023-03-14T01:34:10;9.40;99.90
6054;DHT22;3055;50.886;14.814;2023-03-14T01:36:37;9.50;99.90
6054;DHT22;3055;50.886;14.814;2023-03-14T01:39:06;9.50;99.90
6054;DHT22;3055;50.886;14.814;2023-03-14T01:41:34;9.50;99.90
6054;DHT22;3055;50.886;14.814;2023-03-14T01:44:01;9.50;99.90
6054;DHT22;3055;50.886;14.814;2023-03-14T01:46:34;9.50;99.90
6054;DHT22;3055;50.886;14.814;2023-03-14T01:49:15;9.50;99.90
6054;DHT22;3055;50.886;14.814;2023-03-14T01:51:49;9.50;99.90
6054;DHT22;3055;50.886;14.814;2023-03-14T01:54:20;9.50;99.90
6054;DHT22;3055;50.886;14.814;2023-03-14T01:56:52;9.40;99.90
6054;DHT22;3055;50.886;14.814;2023-03-14T01:59:20;9.40;99.90
6054;DHT22;3055;50.886;14.814;2023-03-14T02:01:49;9.40;99.90
6054;DHT22;3055;50.886;14.814;2023-03-14T02:04:18;9.30;99.90
6054;DHT22;3055;50.886;14.814;2023-03-14T02:06:52;9.30;99.90
6054;DHT22;3055;50.886;14.814;2023-03-14T02:09:22;9.20;99.90
6054;DHT22;3055;50.886;14.814;2023-03-14T02:11:50;9.10;99.90
6054;DHT22;3055;50.886;14.814;2023-03-14T02:14:25;9.10;99.90
6054;DHT22;3055;50.886;14.814;2023-03-14T02:16:54;9.10;99.90
6054;DHT22;3055;50.886;14.814;2023-03-14T02:19:29;9.00;99.90
6054;DHT22;3055;50.886;14.814;2023-03-14T02:22:04;9.00;99.90
6054;DHT22;3055;50.886;14.814;2023-03-14T02:24:40;9.00;99.90
6054;DHT22;3055;50.886;14.814;2023-03-14T02:27:13;8.80;99.90
6054;DHT22;3055;50.886;14.814;2023-03-14T02:29:45;8.80;99.90
6054;DHT22;3055;50.886;14.814;2023-03-14T02:32:15;8.80;99.90
6054;DHT22;3055;50.886;14.814;2023-03-14T02:34:45;8.80;99.90
6054;DHT22;3055;50.886;14.814;2023-03-14T02:37:15;8.90;99.90
6054;DHT22;3055;50.886;14.814;2023-03-14T02:39:45;8.80;99.90
6054;DHT22;3055;50.886;14.814;2023-03-14T02:42:17;8.90;99.90
6054;DHT22;3055;50.886;14.814;2023-03-14T02:44:52;9.00;99.90
6054;DHT22;3055;50.886;14.814;2023-03-14T02:47:25;9.10;99.90
6054;DHT22;3055;50.886;14.814;2023-03-14T02:49:59;9.10;99.90
6054;DHT22;3055;50.886;14.814;2023-03-14T02:52:27;9.00;99.90
6054;DHT22;3055;50.886;14.814;2023-03-14T02:54:54;8.90;99.90
6054;DHT22;3055;50.886;14.814;2023-03-14T02:57:22;9.00;99.90
6054;DHT22;3055;50.886;14.814;2023-03-14T02:59:49;8.90;99.90
6054;DHT22;3055;50.886;14.814;2023-03-14T03:02:16;8.90;99.90
6054;DHT22;3055;50.886;14.814;2023-03-14T03:04:43;8.80;99.90
6054;DHT22;3055;50.886;14.814;2023-03-14T03:07:10;8.70;99.90
6054;DHT22;3055;50.886;14.814;2023-03-14T03:09:37;8.60;99.90
6054;DHT22;3055;50.886;14.814;2023-03-14T03:12:04;8.50;99.90
6054;DHT22;3055;50.886;14.814;2023-03-14T03:14:33;8.50;99.90
6054;DHT22;3055;50.886;14.814;2023-03-14T03:17:00;8.40;99.90
6054;DHT22;3055;50.886;14.814;2023-03-14T03:19:27;8.40;99.90
6054;DHT22;3055;50.886;14.814;2023-03-14T03:21:54;8.30;99.90
6054;DHT22;3055;50.886;14.814;2023-03-14T03:24:21;8.30;99.90
6054;DHT22;3055;50.886;14.814;2023-03-14T03:26:48;8.30;99.90
6054;DHT22;3055;50.886;14.814;2023-03-14T03:29:15;8.30;99.90
6054;DHT22;3055;50.886;14.814;2023-03-14T03:31:44;8.20;99.90
6054;DHT22;3055;50.886;14.814;2023-03-14T03:34:12;8.20;99.90
6054;DHT22;3055;50.886;14.814;2023-03-14T03:36:39;8.20;99.90
6054;DHT22;3055;50.886;14.814;2023-03-14T03:39:06;8.20;99.90
6054;DHT22;3055;50.886;14.814;2023-03-14T03:41:33;8.30;99.90
6054;DHT22;3055;50.886;14.814;2023-03-14T03:44:00;8.30;99.90
6054;DHT22;3055;50.886;14.814;2023-03-14T03:46:27;8.20;99.90
6054;DHT22;3055;50.886;14.814;2023-03-14T03:48:56;8.20;99.90
6054;DHT22;3055;50.886;14.814;2023-03-14T03:51:25;8.20;99.90
6054;DHT22;3055;50.886;14.814;2023-03-14T03:53:52;8.20;99.90
6054;DHT22;3055;50.886;14.814;2023-03-14T03:56:19;8.30;99.90
6054;DHT22;3055;50.886;14.814;2023-03-14T03:58:46;8.30;99.90
6054;DHT22;3055;50.886;14.814;2023-03-14T04:01:16;8.30;99.90
6054;DHT22;3055;50.886;14.814;2023-03-14T04:03:43;8.30;99.90
6054;DHT22;3055;50.886;14.814;2023-03-14T04:06:12;8.40;99.90
6054;DHT22;3055;50.886;14.814;2023-03-14T04:08:40;8.40;99.90
6054;DHT22;3055;50.886;14.814;2023-03-14T04:11:07;8.40;99.90
6054;DHT22;3055;50.886;14.814;2023-03-14T04:13:34;8.40;99.90
6054;DHT22;3055;50.886;14.814;2023-03-14T04:16:01;8.30;99.90
6054;DHT22;3055;50.886;14.814;2023-03-14T04:18:28;8.30;99.90
6054;DHT22;3055;50.886;14.814;2023-03-14T04:20:57;8.40;99.90
6054;DHT22;3055;50.886;14.814;2023-03-14T04:23:25;8.30;99.90
6054;DHT22;3055;50.886;14.814;2023-03-14T04:25:53;8.40;99.90
6054;DHT22;3055;50.886;14.814;2023-03-14T04:28:20;8.50;99.90
6054;DHT22;3055;50.886;14.814;2023-03-14T04:30:47;8.40;99.90
6054;DHT22;3055;50.886;14.814;2023-03-14T04:33:14;8.20;99.90
6054;DHT22;3055;50.886;14.814;2023-03-14T04:35:43;8.20;99.90
6054;DHT22;3055;50.886;14.814;2023-03-14T04:38:10;8.20;99.90
6054;DHT22;3055;50.886;14.814;2023-03-14T04:40:39;8.30;99.90
6054;DHT22;3055;50.886;14.814;2023-03-14T04:43:06;8.20;99.90
6054;DHT22;3055;50.886;14.814;2023-03-14T04:45:33;8.10;99.90
6054;DHT22;3055;50.886;14.814;2023-03-14T04:48:01;8.00;99.90
6054;DHT22;3055;50.886;14.814;2023-03-14T04:50:28;8.00;99.90
6054;DHT22;3055;50.886;14.814;2023-03-14T04:52:55;8.00;99.90
6054;DHT22;3055;50.886;14.814;2023-03-14T04:55:22;8.00;99.90
6054;DHT22;3055;50.886;14.814;2023-03-14T04:57:50;8.10;99.90
6054;DHT22;3055;50.886;14.814;2023-03-14T05:00:18;8.10;99.90
6054;DHT22;3055;50.886;14.814;2023-03-14T05:02:45;8.10;99.90
6054;DHT22;3055;50.886;14.814;2023-03-14T05:05:12;8.00;99.90
6054;DHT22;3055;50.886;14.814;2023-03-14T05:07:39;8.10;99.90
6054;DHT22;3055;50.886;14.814;2023-03-14T05:10:06;8.00;99.90
6054;DHT22;3055;50.886;14.814;2023-03-14T05:12:34;8.10;99.90
6054;DHT22;3055;50.886;14.814;2023-03-14T05:15:02;8.10;99.90
6054;DHT22;3055;50.886;14.814;2023-03-14T05:17:30;8.20;99.90
6054;DHT22;3055;50.886;14.814;2023-03-14T05:19:57;8.20;99.90
6054;DHT22;3055;50.886;14.814;2023-03-14T05:22:24;8.20;99.90
6054;DHT22;3055;50.886;14.814;2023-03-14T05:24:51;8.20;99.90
6054;DHT22;3055;50.886;14.814;2023-03-14T05:27:19;8.20;99.90
6054;DHT22;3055;50.886;14.814;2023-03-14T05:29:47;8.30;99.90
6054;DHT22;3055;50.886;14.814;2023-03-14T05:32:15;8.20;99.90
6054;DHT22;3055;50.886;14.814;2023-03-14T05:34:42;8.30;99.90
6054;DHT22;3055;50.886;14.814;2023-03-14T05:37:09;8.30;99.90
6054;DHT22;3055;50.886;14.814;2023-03-14T05:39:36;8.30;99.90
6054;DHT22;3055;50.886;14.814;2023-03-14T05:42:03;8.30;99.90
6054;DHT22;3055;50.886;14.814;2023-03-14T05:44:31;8.40;99.90
6054;DHT22;3055;50.886;14.814;2023-03-14T05:46:58;8.30;99.90
6054;DHT22;3055;50.886;14.814;2023-03-14T05:49:26;8.30;99.90
6054;DHT22;3055;50.886;14.814;2023-03-14T05:51:53;8.40;99.90
6054;DHT22;3055;50.886;14.814;2023-03-14T05:54:20;8.50;99.90
6054;DHT22;3055;50.886;14.814;2023-03-14T05:56:47;8.60;99.90
6054;DHT22;3055;50.886;14.814;2023-03-14T05:59:15;8.60;99.90
6054;DHT22;3055;50.886;14.814;2023-03-14T06:01:42;8.70;99.90
6054;DHT22;3055;50.886;14.814;2023-03-14T06:04:09;8.70;99.90
6054;DHT22;3055;50.886;14.814;2023-03-14T06:06:37;8.80;99.90
6054;DHT22;3055;50.886;14.814;2023-03-14T06:09:04;8.80;99.90
6054;DHT22;3055;50.886;14.814;2023-03-14T06:11:31;8.80;99.90
6054;DHT22;3055;50.886;14.814;2023-03-14T06:13:59;8.80;99.90
6054;DHT22;3055;50.886;14.814;2023-03-14T06:16:26;8.90;99.90
6054;DHT22;3055;50.886;14.814;2023-03-14T06:18:53;8.90;99.90
6054;DHT22;3055;50.886;14.814;2023-03-14T06:21:20;9.00;99.90
6054;DHT22;3055;50.886;14.814;2023-03-14T06:23:48;9.10;99.90
6054;DHT22;3055;50.886;14.814;2023-03-14T06:26:15;9.10;99.90
6054;DHT22;3055;50.886;14.814;2023-03-14T06:28:42;9.10;99.90
6054;DHT22;3055;50.886;14.814;2023-03-14T06:31:09;9.20;99.90
6054;DHT22;3055;50.886;14.814;2023-03-14T06:33:36;9.20;99.90
6054;DHT22;3055;50.886;14.814;2023-03-14T06:36:04;9.30;99.90
6054;DHT22;3055;50.886;14.814;2023-03-14T06:38:31;9.20;99.90
6054;DHT22;3055;50.886;14.814;2023-03-14T06:41:05;9.30;99.90
6054;DHT22;3055;50.886;14.814;2023-03-14T06:43:32;9.30;99.90
6054;DHT22;3055;50.886;14.814;2023-03-14T06:45:59;9.30;99.90
6054;DHT22;3055;50.886;14.814;2023-03-14T06:48:26;9.40;99.90
6054;DHT22;3055;50.886;14.814;2023-03-14T06:50:53;9.50;99.90
6054;DHT22;3055;50.886;14.814;2023-03-14T06:53:20;9.50;99.90
6054;DHT22;3055;50.886;14.814;2023-03-14T06:55:47;9.60;99.90
6054;DHT22;3055;50.886;14.814;2023-03-14T06:58:16;9.60;99.90
6054;DHT22;3055;50.886;14.814;2023-03-14T07:00:43;9.70;99.90
6054;DHT22;3055;50.886;14.814;2023-03-14T07:03:10;9.70;99.90
6054;DHT22;3055;50.886;14.814;2023-03-14T07:05:39;9.80;99.90
6054;DHT22;3055;50.886;14.814;2023-03-14T07:08:07;9.80;99.90
6054;DHT22;3055;50.886;14.814;2023-03-14T07:10:34;9.90;99.90
6054;DHT22;3055;50.886;14.814;2023-03-14T07:13:02;10.00;99.90
6054;DHT22;3055;50.886;14.814;2023-03-14T07:15:30;10.10;99.90
6054;DHT22;3055;50.886;14.814;2023-03-14T07:17:57;10.20;99.90
6054;DHT22;3055;50.886;14.814;2023-03-14T07:20:25;10.40;99.90
6054;DHT22;3055;50.886;14.814;2023-03-14T07:22:52;10.50;99.90
6054;DHT22;3055;50.886;14.814;2023-03-14T07:25:19;10.60;99.90
6054;DHT22;3055;50.886;14.814;2023-03-14T07:27:47;10.70;94.30
6054;DHT22;3055;50.886;14.814;2023-03-14T07:30:14;10.80;90.80
6054;DHT22;3055;50.886;14.814;2023-03-14T07:32:43;10.80;91.70
6054;DHT22;3055;50.886;14.814;2023-03-14T07:35:12;10.80;59.30
6054;DHT22;3055;50.886;14.814;2023-03-14T07:37:39;10.80;85.00
6054;DHT22;3055;50.886;14.814;2023-03-14T07:40:07;10.80;93.80
6054;DHT22;3055;50.886;14.814;2023-03-14T07:42:36;10.80;90.60
6054;DHT22;3055;50.886;14.814;2023-03-14T07:45:03;10.80;98.30
6054;DHT22;3055;50.886;14.814;2023-03-14T07:47:31;10.80;92.50
6054;DHT22;3055;50.886;14.814;2023-03-14T07:49:59;10.80;99.30
6054;DHT22;3055;50.886;14.814;2023-03-14T07:52:26;10.90;97.90
6054;DHT22;3055;50.886;14.814;2023-03-14T07:54:53;10.90;99.90
6054;DHT22;3055;50.886;14.814;2023-03-14T07:57:20;11.00;97.70
6054;DHT22;3055;50.886;14.814;2023-03-14T07:59:47;11.10;96.00
6054;DHT22;3055;50.886;14.814;2023-03-14T08:02:14;11.20;96.10
6054;DHT22;3055;50.886;14.814;2023-03-14T08:04:42;11.30;93.30
6054;DHT22;3055;50.886;14.814;2023-03-14T08:07:10;11.40;91.00
6054;DHT22;3055;50.886;14.814;2023-03-14T08:09:37;11.40;91.60
6054;DHT22;3055;50.886;14.814;2023-03-14T08:12:05;11.50;87.00
6054;DHT22;3055;50.886;14.814;2023-03-14T08:14:32;11.50;85.70
6054;DHT22;3055;50.886;14.814;2023-03-14T08:16:59;11.50;75.40
6054;DHT22;3055;50.886;14.814;2023-03-14T08:19:26;11.50;88.70
6054;DHT22;3055;50.886;14.814;2023-03-14T08:21:53;11.60;65.70
6054;DHT22;3055;50.886;14.814;2023-03-14T08:24:22;11.60;69.00
6054;DHT22;3055;50.886;14.814;2023-03-14T08:26:49;11.70;61.50
6054;DHT22;3055;50.886;14.814;2023-03-14T08:29:16;11.80;52.80
6054;DHT22;3055;50.886;14.814;2023-03-14T08:31:44;11.80;46.70
6054;DHT22;3055;50.886;14.814;2023-03-14T08:34:12;11.80;32.10
6054;DHT22;3055;50.886;14.814;2023-03-14T08:36:39;11.80;47.00
6054;DHT22;3055;50.886;14.814;2023-03-14T08:39:06;11.90;41.40
6054;DHT22;3055;50.886;14.814;2023-03-14T08:41:35;12.00;48.10
6054;DHT22;3055;50.886;14.814;2023-03-14T08:44:06;12.00;48.50
6054;DHT22;3055;50.886;14.814;2023-03-14T08:46:33;12.20;47.50
6054;DHT22;3055;50.886;14.814;2023-03-14T08:49:00;12.30;31.40
6054;DHT22;3055;50.886;14.814;2023-03-14T08:51:27;12.40;6.20
6054;DHT22;3055;50.886;14.814;2023-03-14T08:53:54;12.50;1.00
6054;DHT22;3055;50.886;14.814;2023-03-14T08:56:21;12.50;1.00
6054;DHT22;3055;50.886;14.814;2023-03-14T08:58:50;12.60;1.00
6054;DHT22;3055;50.886;14.814;2023-03-14T09:01:17;12.70;1.00
6054;DHT22;3055;50.886;14.814;2023-03-14T09:03:44;12.70;1.00
6054;DHT22;3055;50.886;14.814;2023-03-14T09:06:13;12.70;1.00
6054;DHT22;3055;50.886;14.814;2023-03-14T09:08:43;12.60;1.00
6054;DHT22;3055;50.886;14.814;2023-03-14T09:11:11;12.60;1.00
6054;DHT22;3055;50.886;14.814;2023-03-14T09:13:38;12.60;1.00
6054;DHT22;3055;50.886;14.814;2023-03-14T09:16:08;12.60;1.00
6054;DHT22;3055;50.886;14.814;2023-03-14T09:18:35;12.70;1.00
6054;DHT22;3055;50.886;14.814;2023-03-14T09:21:03;12.90;1.00
6054;DHT22;3055;50.886;14.814;2023-03-14T09:23:30;12.90;1.00
6054;DHT22;3055;50.886;14.814;2023-03-14T09:25:58;12.90;1.00
6054;DHT22;3055;50.886;14.814;2023-03-14T09:28:25;13.00;1.00
6054;DHT22;3055;50.886;14.814;2023-03-14T09:30:52;13.10;1.00
6054;DHT22;3055;50.886;14.814;2023-03-14T09:33:21;13.20;1.00
6054;DHT22;3055;50.886;14.814;2023-03-14T09:35:48;13.30;1.00
6054;DHT22;3055;50.886;14.814;2023-03-14T09:38:16;13.30;1.00
6054;DHT22;3055;50.886;14.814;2023-03-14T09:40:43;13.30;99.90
6054;DHT22;3055;50.886;14.814;2023-03-14T09:43:11;13.30;99.90
6054;DHT22;3055;50.886;14.814;2023-03-14T09:45:41;13.30;84.30
6054;DHT22;3055;50.886;14.814;2023-03-14T09:48:15;13.30;13.00
6054;DHT22;3055;50.886;14.814;2023-03-14T09:50:48;13.40;13.70
6054;DHT22;3055;50.886;14.814;2023-03-14T09:53:18;13.50;1.00
6054;DHT22;3055;50.886;14.814;2023-03-14T09:55:47;13.60;1.00
6054;DHT22;3055;50.886;14.814;2023-03-14T09:58:17;13.70;1.00
6054;DHT22;3055;50.886;14.814;2023-03-14T10:00:45;13.70;1.00
6054;DHT22;3055;50.886;14.814;2023-03-14T10:03:22;13.70;1.00
6054;DHT22;3055;50.886;14.814;2023-03-14T10:05:52;13.70;1.00
6054;DHT22;3055;50.886;14.814;2023-03-14T10:08:20;13.60;1.00
6054;DHT22;3055;50.886;14.814;2023-03-14T10:10:47;13.60;1.00
6054;DHT22;3055;50.886;14.814;2023-03-14T10:13:16;13.70;1.00
6054;DHT22;3055;50.886;14.814;2023-03-14T10:15:50;13.70;1.00
6054;DHT22;3055;50.886;14.814;2023-03-14T10:18:18;13.90;1.00
6054;DHT22;3055;50.886;14.814;2023-03-14T10:20:46;14.00;1.00
6054;DHT22;3055;50.886;14.814;2023-03-14T10:23:27;14.00;1.00
6054;DHT22;3055;50.886;14.814;2023-03-14T10:26:06;13.90;99.90
6054;DHT22;3055;50.886;14.814;2023-03-14T10:28:39;14.00;99.90
6054;DHT22;3055;50.886;14.814;2023-03-14T10:31:06;14.00;99.90
6054;DHT22;3055;50.886;14.814;2023-03-14T10:33:35;14.10;99.90
6054;DHT22;3055;50.886;14.814;2023-03-14T10:36:05;14.10;99.90
6054;DHT22;3055;50.886;14.814;2023-03-14T10:38:36;14.10;99.90
6054;DHT22;3055;50.886;14.814;2023-03-14T10:41:15;14.10;99.90
6054;DHT22;3055;50.886;14.814;2023-03-14T10:43:43;14.10;99.90
6054;DHT22;3055;50.886;14.814;2023-03-14T10:46:15;14.10;99.90
6054;DHT22;3055;50.886;14.814;2023-03-14T10:48:43;14.20;99.90
6054;DHT22;3055;50.886;14.814;2023-03-14T10:51:19;14.20;99.90
6054;DHT22;3055;50.886;14.814;2023-03-14T10:53:49;14.30;99.90
6054;DHT22;3055;50.886;14.814;2023-03-14T10:56:19;14.30;99.90
6054;DHT22;3055;50.886;14.814;2023-03-14T10:58:48;14.50;99.90
6054;DHT22;3055;50.886;14.814;2023-03-14T11:01:27;14.60;99.90
6054;DHT22;3055;50.886;14.814;2023-03-14T11:03:58;14.70;99.90
6054;DHT22;3055;50.886;14.814;2023-03-14T11:06:35;14.90;99.90
6054;DHT22;3055;50.886;14.814;2023-03-14T11:09:12;14.80;99.90
6054;DHT22;3055;50.886;14.814;2023-03-14T11:11:46;14.60;99.90
6054;DHT22;3055;50.886;14.814;2023-03-14T11:14:21;14.60;99.90
6054;DHT22;3055;50.886;14.814;2023-03-14T11:16:57;14.70;99.90
6054;DHT22;3055;50.886;14.814;2023-03-14T11:19:42;14.80;99.90
6054;DHT22;3055;50.886;14.814;2023-03-14T11:22:18;14.90;99.90
6054;DHT22;3055;50.886;14.814;2023-03-14T11:25:03;14.80;99.90
6054;DHT22;3055;50.886;14.814;2023-03-14T11:27:41;14.70;99.90
6054;DHT22;3055;50.886;14.814;2023-03-14T11:30:20;14.60;99.90
6054;DHT22;3055;50.886;14.814;2023-03-14T11:32:55;14.50;99.90
6054;DHT22;3055;50.886;14.814;2023-03-14T11:35:26;14.30;99.90
6054;DHT22;3055;50.886;14.814;2023-03-14T11:38:00;14.10;99.90
6054;DHT22;3055;50.886;14.814;2023-03-14T11:40:32;14.00;99.90
6054;DHT22;3055;50.886;14.814;2023-03-14T11:43:04;13.80;99.90
6054;DHT22;3055;50.886;14.814;2023-03-14T11:45:35;13.80;99.90
6054;DHT22;3055;50.886;14.814;2023-03-14T11:48:18;13.80;99.90
6054;DHT22;3055;50.886;14.814;2023-03-14T11:50:49;13.80;99.90
6054;DHT22;3055;50.886;14.814;2023-03-14T11:53:20;13.90;99.90
6054;DHT22;3055;50.886;14.814;2023-03-14T11:55:50;14.00;99.90
6054;DHT22;3055;50.886;14.814;2023-03-14T11:58:22;13.90;99.90
6054;DHT22;3055;50.886;14.814;2023-03-14T12:00:52;13.90;99.90
6054;DHT22;3055;50.886;14.814;2023-03-14T12:03:26;14.00;99.90
6054;DHT22;3055;50.886;14.814;2023-03-14T12:06:13;14.10;99.90
6054;DHT22;3055;50.886;14.814;2023-03-14T12:08:48;14.10;99.90
6054;DHT22;3055;50.886;14.814;2023-03-14T12:11:24;14.00;99.90
6054;DHT22;3055;50.886;14.814;2023-03-14T12:13:53;14.00;99.90
6054;DHT22;3055;50.886;14.814;2023-03-14T12:16:35;14.00;99.90
6054;DHT22;3055;50.886;14.814;2023-03-14T12:22:23;14.10;99.90
6054;DHT22;3055;50.886;14.814;2023-03-14T12:24:54;14.20;99.90
6054;DHT22;3055;50.886;14.814;2023-03-14T12:30:37;14.40;99.90
6054;DHT22;3055;50.886;14.814;2023-03-14T12:33:31;14.50;99.90
6054;DHT22;3055;50.886;14.814;2023-03-14T12:39:05;14.50;99.90
6054;DHT22;3055;50.886;14.814;2023-03-14T12:41:38;14.40;99.90
6054;DHT22;3055;50.886;14.814;2023-03-14T12:44:43;14.20;99.90
6054;DHT22;3055;50.886;14.814;2023-03-14T12:47:47;14.20;99.90
6054;DHT22;3055;50.886;14.814;2023-03-14T12:50:21;14.20;99.90
6054;DHT22;3055;50.886;14.814;2023-03-14T12:55:58;14.70;99.90
6054;DHT22;3055;50.886;14.814;2023-03-14T12:58:32;14.80;99.90
6054;DHT22;3055;50.886;14.814;2023-03-14T13:01:03;14.80;99.90
6054;DHT22;3055;50.886;14.814;2023-03-14T13:03:39;14.80;99.90
6054;DHT22;3055;50.886;14.814;2023-03-14T13:06:09;14.80;99.90
6054;DHT22;3055;50.886;14.814;2023-03-14T13:08:40;14.70;99.90
6054;DHT22;3055;50.886;14.814;2023-03-14T13:11:10;14.70;99.90
6054;DHT22;3055;50.886;14.814;2023-03-14T13:13:41;14.70;99.90
6054;DHT22;3055;50.886;14.814;2023-03-14T13:16:15;14.70;99.90
6054;DHT22;3055;50.886;14.814;2023-03-14T13:18:44;15.00;99.90
6054;DHT22;3055;50.886;14.814;2023-03-14T13:21:14;15.30;92.10
6054;DHT22;3055;50.886;14.814;2023-03-14T13:23:54;15.30;86.60
6054;DHT22;3055;50.886;14.814;2023-03-14T13:26:23;15.60;88.20
6054;DHT22;3055;50.886;14.814;2023-03-14T13:28:51;15.80;80.30
6054;DHT22;3055;50.886;14.814;2023-03-14T13:31:22;16.20;64.10
6054;DHT22;3055;50.886;14.814;2023-03-14T13:34:00;16.50;30.70
6054;DHT22;3055;50.886;14.814;2023-03-14T13:36:28;16.60;17.60
6054;DHT22;3055;50.886;14.814;2023-03-14T13:38:56;16.50;7.60
6054;DHT22;3055;50.886;14.814;2023-03-14T13:41:24;16.30;3.30
6054;DHT22;3055;50.886;14.814;2023-03-14T13:43:52;16.10;1.00
6054;DHT22;3055;50.886;14.814;2023-03-14T13:46:26;15.90;1.00
6054;DHT22;3055;50.886;14.814;2023-03-14T13:48:56;15.60;1.00
6054;DHT22;3055;50.886;14.814;2023-03-14T13:51:24;15.30;1.00
6054;DHT22;3055;50.886;14.814;2023-03-14T13:53:55;15.00;1.00
6054;DHT22;3055;50.886;14.814;2023-03-14T13:56:25;15.00;1.00
6054;DHT22;3055;50.886;14.814;2023-03-14T13:58:52;15.00;1.00
6054;DHT22;3055;50.886;14.814;2023-03-14T14:01:22;15.00;1.00
6054;DHT22;3055;50.886;14.814;2023-03-14T14:03:53;15.10;1.00
6054;DHT22;3055;50.886;14.814;2023-03-14T14:06:30;15.30;1.00
6054;DHT22;3055;50.886;14.814;2023-03-14T14:08:59;15.40;1.00
6054;DHT22;3055;50.886;14.814;2023-03-14T14:11:36;15.40;1.00
6054;DHT22;3055;50.886;14.814;2023-03-14T14:14:07;15.30;1.00
6054;DHT22;3055;50.886;14.814;2023-03-14T14:16:37;15.30;1.00
6054;DHT22;3055;50.886;14.814;2023-03-14T14:19:05;15.20;1.00
6054;DHT22;3055;50.886;14.814;2023-03-14T14:21:33;15.00;1.00
6054;DHT22;3055;50.886;14.814;2023-03-14T14:24:00;14.80;1.00
6054;DHT22;3055;50.886;14.814;2023-03-14T14:26:27;14.70;1.00
6054;DHT22;3055;50.886;14.814;2023-03-14T14:29:02;14.60;1.00
6054;DHT22;3055;50.886;14.814;2023-03-14T14:31:30;14.40;1.00
6054;DHT22;3055;50.886;14.814;2023-03-14T14:33:58;14.30;1.00
6054;DHT22;3055;50.886;14.814;2023-03-14T14:36:29;14.30;1.00
6054;DHT22;3055;50.886;14.814;2023-03-14T14:38:59;14.20;1.00
6054;DHT22;3055;50.886;14.814;2023-03-14T14:41:28;14.20;1.00
6054;DHT22;3055;50.886;14.814;2023-03-14T14:43:57;14.20;1.00
6054;DHT22;3055;50.886;14.814;2023-03-14T14:46:27;14.20;1.00
6054;DHT22;3055;50.886;14.814;2023-03-14T14:48:56;14.20;1.00
6054;DHT22;3055;50.886;14.814;2023-03-14T14:51:30;14.20;1.00
6054;DHT22;3055;50.886;14.814;2023-03-14T14:54:11;14.20;1.00
6054;DHT22;3055;50.886;14.814;2023-03-14T14:56:38;14.10;1.00
6054;DHT22;3055;50.886;14.814;2023-03-14T14:59:17;14.00;1.00
6054;DHT22;3055;50.886;14.814;2023-03-14T15:01:45;13.90;1.00
6054;DHT22;3055;50.886;14.814;2023-03-14T15:04:15;13.80;5.60
6054;DHT22;3055;50.886;14.814;2023-03-14T15:06:46;13.70;13.90
6054;DHT22;3055;50.886;14.814;2023-03-14T15:09:13;13.60;26.30
6054;DHT22;3055;50.886;14.814;2023-03-14T15:11:42;13.50;53.70
6054;DHT22;3055;50.886;14.814;2023-03-14T15:14:09;13.30;75.70
6054;DHT22;3055;50.886;14.814;2023-03-14T15:16:36;13.10;99.90
6054;DHT22;3055;50.886;14.814;2023-03-14T15:19:09;13.00;99.90
6054;DHT22;3055;50.886;14.814;2023-03-14T15:21:37;12.80;99.90
6054;DHT22;3055;50.886;14.814;2023-03-14T15:24:07;12.70;99.90
6054;DHT22;3055;50.886;14.814;2023-03-14T15:26:35;12.70;99.90
6054;DHT22;3055;50.886;14.814;2023-03-14T15:29:02;12.70;99.90
6054;DHT22;3055;50.886;14.814;2023-03-14T15:31:30;12.70;99.90
6054;DHT22;3055;50.886;14.814;2023-03-14T15:33:57;12.60;99.90
6054;DHT22;3055;50.886;14.814;2023-03-14T15:36:26;12.60;99.90
6054;DHT22;3055;50.886;14.814;2023-03-14T15:38:54;12.60;99.90
6054;DHT22;3055;50.886;14.814;2023-03-14T15:41:23;12.70;99.90
6054;DHT22;3055;50.886;14.814;2023-03-14T15:43:50;13.00;99.90
6054;DHT22;3055;50.886;14.814;2023-03-14T15:46:17;13.20;99.90
6054;DHT22;3055;50.886;14.814;2023-03-14T15:48:45;13.30;99.90
6054;DHT22;3055;50.886;14.814;2023-03-14T15:51:13;13.30;99.90
6054;DHT22;3055;50.886;14.814;2023-03-14T15:53:40;13.20;99.90
6054;DHT22;3055;50.886;14.814;2023-03-14T15:56:12;13.10;99.90
6054;DHT22;3055;50.886;14.814;2023-03-14T15:58:41;12.90;99.90
6054;DHT22;3055;50.886;14.814;2023-03-14T16:01:12;12.70;99.90
6054;DHT22;3055;50.886;14.814;2023-03-14T16:03:41;12.50;99.90
6054;DHT22;3055;50.886;14.814;2023-03-14T16:06:10;12.30;1.00
6054;DHT22;3055;50.886;14.814;2023-03-14T16:08:37;12.30;1.00
6054;DHT22;3055;50.886;14.814;2023-03-14T16:11:04;12.20;1.00
6054;DHT22;3055;50.886;14.814;2023-03-14T16:13:32;12.20;1.00
6054;DHT22;3055;50.886;14.814;2023-03-14T16:16:02;12.10;1.00
6054;DHT22;3055;50.886;14.814;2023-03-14T16:18:31;12.00;1.00
6054;DHT22;3055;50.886;14.814;2023-03-14T16:20:59;12.00;22.30